sensor_id;sensor_type;location;lat;lon;timestamp;temperature;humidity
25906;DHT22;13713;52.552;13.204;2024-03-02T00:00:10;16.80;99.90
25906;DHT22;13713;52.552;13.204;2024-03-02T00:02:40;16.80;99.90
25906;DHT22;13713;52.552;13.204;2024-03-02T00:05:07;16.80;99.90
25906;DHT22;13713;52.552;13.204;2024-03-02T00:07:33;16.80;99.90
25906;DHT22;13713;52.552;13.204;2024-03-02T00:09:59;16.80;99.90
25906;DHT22;13713;52.552;13.204;2024-03-02T00:12:25;16.80;99.90
25906;DHT22;13713;52.552;13.204;2024-03-02T00:14:51;16.80;99.90
25906;DHT22;13713;52.552;13.204;2024-03-02T00:17:24;16.80;99.90
25906;DHT22;13713;52.552;13.204;2024-03-02T00:19:51;16.80;99.90
25906;DHT22;13713;52.552;13.204;2024-03-02T00:22:18;16.80;99.90
25906;DHT22;13713;52.552;13.204;2024-03-02T00:24:44;16.80;99.90
25906;DHT22;13713;52.552;13.204;2024-03-02T00:27:14;16.80;99.90
25906;DHT22;13713;52.552;13.204;2024-03-02T00:29:41;16.80;99.90
25906;DHT22;13713;52.552;13.204;2024-03-02T00:32:17;16.80;99.90
25906;DHT22;13713;52.552;13.204;2024-03-02T00:34:43;16.80;99.90
25906;DHT22;13713;52.552;13.204;2024-03-02T00:37:09;16.80;99.90
25906;DHT22;13713;52.552;13.204;2024-03-02T00:39:35;16.70;99.90
25906;DHT22;13713;52.552;13.204;2024-03-02T00:42:01;16.70;99.90
25906;DHT22;13713;52.552;13.204;2024-03-02T00:44:27;16.70;99.90
25906;DHT22;13713;52.552;13.204;2024-03-02T00:46:56;16.70;99.90
25906;DHT22;13713;52.552;13.204;2024-03-02T00:49:24;16.70;99.90
25906;DHT22;13713;52.552;13.204;2024-03-02T00:51:52;16.80;99.90
25906;DHT22;13713;52.552;13.204;2024-03-02T00:54:23;16.70;99.90
25906;DHT22;13713;52.552;13.204;2024-03-02T00:56:50;16.70;99.90
25906;DHT22;13713;52.552;13.204;2024-03-02T00:59:17;16.70;99.90
25906;DHT22;13713;52.552;13.204;2024-03-02T01:01:42;16.70;99.90
25906;DHT22;13713;52.552;13.204;2024-03-02T01:04:09;16.70;99.90
25906;DHT22;13713;52.552;13.204;2024-03-02T01:06:38;16.70;99.90
25906;DHT22;13713;52.552;13.204;2024-03-02T01:09:03;16.70;99.90
25906;DHT22;13713;52.552;13.204;2024-03-02T01:11:29;16.70;99.90
25906;DHT22;13713;52.552;13.204;2024-03-02T01:13:55;16.70;99.90
25906;DHT22;13713;52.552;13.204;2024-03-02T01:16:21;16.60;99.90
25906;DHT22;13713;52.552;13.204;2024-03-02T01:18:47;16.70;99.90
25906;DHT22;13713;52.552;13.204;2024-03-02T01:21:13;16.70;99.90
25906;DHT22;13713;52.552;13.204;2024-03-02T01:23:39;16.70;99.90
25906;DHT22;13713;52.552;13.204;2024-03-02T01:26:05;16.70;99.90
25906;DHT22;13713;52.552;13.204;2024-03-02T01:28:31;16.70;99.90
25906;DHT22;13713;52.552;13.204;2024-03-02T01:30:57;16.60;99.90
25906;DHT22;13713;52.552;13.204;2024-03-02T01:33:22;16.60;99.90
25906;DHT22;13713;52.552;13.204;2024-03-02T01:35:48;16.60;99.90
25906;DHT22;13713;52.552;13.204;2024-03-02T01:38:14;16.60;99.90
25906;DHT22;13713;52.552;13.204;2024-03-02T01:40:40;16.60;99.90
25906;DHT22;13713;52.552;13.204;2024-03-02T01:43:06;16.60;99.90
25906;DHT22;13713;52.552;13.204;2024-03-02T01:45:33;16.60;99.90
25906;DHT22;13713;52.552;13.204;2024-03-02T01:47:59;16.60;99.90
25906;DHT22;13713;52.552;13.204;2024-03-02T01:50:31;16.60;99.90
25906;DHT22;13713;52.552;13.204;2024-03-02T01:52:58;16.60;99.90
25906;DHT22;13713;52.552;13.204;2024-03-02T01:55:24;16.60;99.90
25906;DHT22;13713;52.552;13.204;2024-03-02T01:57:50;16.60;99.90
25906;DHT22;13713;52.552;13.204;2024-03-02T02:00:17;16.60;99.90
25906;DHT22;13713;52.552;13.204;2024-03-02T02:02:43;16.60;99.90
25906;DHT22;13713;52.552;13.204;2024-03-02T02:05:09;16.60;99.90
25906;DHT22;13713;52.552;13.204;2024-03-02T02:07:36;16.60;99.90
25906;DHT22;13713;52.552;13.204;2024-03-02T02:10:01;16.60;99.90
25906;DHT22;13713;52.552;13.204;2024-03-02T02:12:28;16.50;99.90
25906;DHT22;13713;52.552;13.204;2024-03-02T02:14:54;16.60;99.90
25906;DHT22;13713;52.552;13.204;2024-03-02T02:17:20;16.60;99.90
25906;DHT22;13713;52.552;13.204;2024-03-02T02:19:45;16.60;99.90
25906;DHT22;13713;52.552;13.204;2024-03-02T02:22:11;16.50;99.90
25906;DHT22;13713;52.552;13.204;2024-03-02T02:24:43;16.50;99.90
25906;DHT22;13713;52.552;13.204;2024-03-02T02:27:09;16.50;99.90
25906;DHT22;13713;52.552;13.204;2024-03-02T02:29:41;16.50;99.90
25906;DHT22;13713;52.552;13.204;2024-03-02T02:32:07;16.50;99.90
25906;DHT22;13713;52.552;13.204;2024-03-02T02:34:32;16.50;99.90
25906;DHT22;13713;52.552;13.204;2024-03-02T02:36:59;16.50;99.90
25906;DHT22;13713;52.552;13.204;2024-03-02T02:39:25;16.50;99.90
25906;DHT22;13713;52.552;13.204;2024-03-02T02:41:50;16.50;99.90
25906;DHT22;13713;52.552;13.204;2024-03-02T02:44:16;16.50;99.90
25906;DHT22;13713;52.552;13.204;2024-03-02T02:46:42;16.50;99.90
25906;DHT22;13713;52.552;13.204;2024-03-02T02:49:08;16.50;99.90
25906;DHT22;13713;52.552;13.204;2024-03-02T02:51:34;16.50;99.90
25906;DHT22;13713;52.552;13.204;2024-03-02T02:53:59;16.50;99.90
25906;DHT22;13713;52.552;13.204;2024-03-02T02:56:26;16.50;99.90
25906;DHT22;13713;52.552;13.204;2024-03-02T02:58:51;16.50;99.90
25906;DHT22;13713;52.552;13.204;2024-03-02T03:01:17;16.50;99.90
25906;DHT22;13713;52.552;13.204;2024-03-02T03:03:46;16.50;99.90
25906;DHT22;13713;52.552;13.204;2024-03-02T03:06:12;16.50;99.90
25906;DHT22;13713;52.552;13.204;2024-03-02T03:08:38;16.40;99.90
25906;DHT22;13713;52.552;13.204;2024-03-02T03:11:04;16.40;99.90
25906;DHT22;13713;52.552;13.204;2024-03-02T03:13:34;16.50;99.90
25906;DHT22;13713;52.552;13.204;2024-03-02T03:16:00;16.40;99.90
25906;DHT22;13713;52.552;13.204;2024-03-02T03:18:26;16.40;99.90
25906;DHT22;13713;52.552;13.204;2024-03-02T03:20:52;16.40;99.90
25906;DHT22;13713;52.552;13.204;2024-03-02T03:23:18;16.40;99.90
25906;DHT22;13713;52.552;13.204;2024-03-02T03:25:43;16.40;99.90
25906;DHT22;13713;52.552;13.204;2024-03-02T03:28:10;16.40;99.90
25906;DHT22;13713;52.552;13.204;2024-03-02T03:30:39;16.40;99.90
25906;DHT22;13713;52.552;13.204;2024-03-02T03:33:05;16.40;99.80
25906;DHT22;13713;52.552;13.204;2024-03-02T03:35:34;16.40;99.80
25906;DHT22;13713;52.552;13.204;2024-03-02T03:38:00;16.40;99.90
25906;DHT22;13713;52.552;13.204;2024-03-02T03:40:26;16.40;99.90
25906;DHT22;13713;52.552;13.204;2024-03-02T03:42:52;16.40;99.90
25906;DHT22;13713;52.552;13.204;2024-03-02T03:45:18;16.40;99.90
25906;DHT22;13713;52.552;13.204;2024-03-02T03:47:44;16.40;99.90
25906;DHT22;13713;52.552;13.204;2024-03-02T03:50:09;16.40;99.90
25906;DHT22;13713;52.552;13.204;2024-03-02T03:52:35;16.40;99.90
25906;DHT22;13713;52.552;13.204;2024-03-02T03:55:01;16.40;99.90
25906;DHT22;13713;52.552;13.204;2024-03-02T03:57:27;16.40;99.90
25906;DHT22;13713;52.552;13.204;2024-03-02T03:59:53;16.30;99.90
25906;DHT22;13713;52.552;13.204;2024-03-02T04:02:19;16.30;99.90
25906;DHT22;13713;52.552;13.204;2024-03-02T04:04:45;16.30;99.90
25906;DHT22;13713;52.552;13.204;2024-03-02T04:07:11;16.30;99.90
25906;DHT22;13713;52.552;13.204;2024-03-02T04:09:37;16.30;99.90
25906;DHT22;13713;52.552;13.204;2024-03-02T04:12:03;16.40;99.90
25906;DHT22;13713;52.552;13.204;2024-03-02T04:14:29;16.30;99.90
25906;DHT22;13713;52.552;13.204;2024-03-02T04:16:54;16.30;99.90
25906;DHT22;13713;52.552;13.204;2024-03-02T04:19:21;16.30;99.90
25906;DHT22;13713;52.552;13.204;2024-03-02T04:21:46;16.30;99.90
25906;DHT22;13713;52.552;13.204;2024-03-02T04:24:12;16.30;99.90
25906;DHT22;13713;52.552;13.204;2024-03-02T04:26:38;16.30;99.90
25906;DHT22;13713;52.552;13.204;2024-03-02T04:29:04;16.30;99.90
25906;DHT22;13713;52.552;13.204;2024-03-02T04:31:29;16.30;99.90
25906;DHT22;13713;52.552;13.204;2024-03-02T04:33:55;16.30;99.90
25906;DHT22;13713;52.552;13.204;2024-03-02T04:36:21;16.30;99.90
25906;DHT22;13713;52.552;13.204;2024-03-02T04:38:47;16.30;99.90
25906;DHT22;13713;52.552;13.204;2024-03-02T04:41:13;16.40;99.90
25906;DHT22;13713;52.552;13.204;2024-03-02T04:43:39;16.30;99.90
25906;DHT22;13713;52.552;13.204;2024-03-02T04:46:05;16.20;99.90
25906;DHT22;13713;52.552;13.204;2024-03-02T04:48:32;16.20;99.90
25906;DHT22;13713;52.552;13.204;2024-03-02T04:50:58;16.20;99.90
25906;DHT22;13713;52.552;13.204;2024-03-02T04:53:24;16.30;99.90
25906;DHT22;13713;52.552;13.204;2024-03-02T04:55:50;16.30;99.90
25906;DHT22;13713;52.552;13.204;2024-03-02T04:58:35;16.20;99.90
25906;DHT22;13713;52.552;13.204;2024-03-02T05:01:00;16.20;99.90
25906;DHT22;13713;52.552;13.204;2024-03-02T05:03:26;16.20;99.90
25906;DHT22;13713;52.552;13.204;2024-03-02T05:05:52;16.30;99.90
25906;DHT22;13713;52.552;13.204;2024-03-02T05:08:18;16.20;99.90
25906;DHT22;13713;52.552;13.204;2024-03-02T05:10:44;16.20;99.90
25906;DHT22;13713;52.552;13.204;2024-03-02T05:13:09;16.20;99.90
25906;DHT22;13713;52.552;13.204;2024-03-02T05:15:35;16.20;99.90
25906;DHT22;13713;52.552;13.204;2024-03-02T05:18:01;16.20;99.90
25906;DHT22;13713;52.552;13.204;2024-03-02T05:20:30;16.20;99.90
25906;DHT22;13713;52.552;13.204;2024-03-02T05:22:56;16.20;99.90
25906;DHT22;13713;52.552;13.204;2024-03-02T05:25:22;16.20;99.90
25906;DHT22;13713;52.552;13.204;2024-03-02T05:27:48;16.20;99.90
25906;DHT22;13713;52.552;13.204;2024-03-02T05:30:14;16.20;99.90
25906;DHT22;13713;52.552;13.204;2024-03-02T05:32:40;16.20;99.90
25906;DHT22;13713;52.552;13.204;2024-03-02T05:35:06;16.20;99.90
25906;DHT22;13713;52.552;13.204;2024-03-02T05:37:33;16.20;99.90
25906;DHT22;13713;52.552;13.204;2024-03-02T05:39:59;16.20;99.90
25906;DHT22;13713;52.552;13.204;2024-03-02T05:42:25;16.20;99.90
25906;DHT22;13713;52.552;13.204;2024-03-02T05:44:51;16.20;99.90
25906;DHT22;13713;52.552;13.204;2024-03-02T05:47:16;16.20;99.90
25906;DHT22;13713;52.552;13.204;2024-03-02T05:49:42;16.10;99.90
25906;DHT22;13713;52.552;13.204;2024-03-02T05:52:08;16.10;99.90
25906;DHT22;13713;52.552;13.204;2024-03-02T05:54:34;16.20;99.90
25906;DHT22;13713;52.552;13.204;2024-03-02T05:57:00;16.10;99.90
25906;DHT22;13713;52.552;13.204;2024-03-02T05:59:42;16.10;99.90
25906;DHT22;13713;52.552;13.204;2024-03-02T06:02:09;16.10;99.90
25906;DHT22;13713;52.552;13.204;2024-03-02T06:04:34;16.10;99.90
25906;DHT22;13713;52.552;13.204;2024-03-02T06:07:00;16.10;99.90
25906;DHT22;13713;52.552;13.204;2024-03-02T06:09:26;16.10;99.90
25906;DHT22;13713;52.552;13.204;2024-03-02T06:11:52;16.10;99.90
25906;DHT22;13713;52.552;13.204;2024-03-02T06:14:18;16.10;99.90
25906;DHT22;13713;52.552;13.204;2024-03-02T06:16:43;16.10;99.90
25906;DHT22;13713;52.552;13.204;2024-03-02T06:19:09;16.10;99.90
25906;DHT22;13713;52.552;13.204;2024-03-02T06:21:35;16.10;99.90
25906;DHT22;13713;52.552;13.204;2024-03-02T06:24:01;16.10;99.90
25906;DHT22;13713;52.552;13.204;2024-03-02T06:26:26;16.10;99.90
25906;DHT22;13713;52.552;13.204;2024-03-02T06:28:52;16.10;99.90
25906;DHT22;13713;52.552;13.204;2024-03-02T06:31:18;16.10;99.90
25906;DHT22;13713;52.552;13.204;2024-03-02T06:33:44;16.10;99.90
25906;DHT22;13713;52.552;13.204;2024-03-02T06:36:10;16.00;99.90
25906;DHT22;13713;52.552;13.204;2024-03-02T06:38:37;16.10;99.90
25906;DHT22;13713;52.552;13.204;2024-03-02T06:41:03;16.10;99.90
25906;DHT22;13713;52.552;13.204;2024-03-02T06:43:32;16.10;99.90
25906;DHT22;13713;52.552;13.204;2024-03-02T06:45:58;16.10;99.90
25906;DHT22;13713;52.552;13.204;2024-03-02T06:48:23;16.10;99.90
25906;DHT22;13713;52.552;13.204;2024-03-02T06:50:50;16.10;99.90
25906;DHT22;13713;52.552;13.204;2024-03-02T06:53:17;16.10;99.90
25906;DHT22;13713;52.552;13.204;2024-03-02T06:55:44;16.10;99.90
25906;DHT22;13713;52.552;13.204;2024-03-02T06:58:13;16.10;99.90
25906;DHT22;13713;52.552;13.204;2024-03-02T07:00:40;16.10;99.90
25906;DHT22;13713;52.552;13.204;2024-03-02T07:03:06;16.10;99.90
25906;DHT22;13713;52.552;13.204;2024-03-02T07:05:32;16.10;99.90
25906;DHT22;13713;52.552;13.204;2024-03-02T07:07:58;16.10;99.90
25906;DHT22;13713;52.552;13.204;2024-03-02T07:10:23;16.10;99.90
25906;DHT22;13713;52.552;13.204;2024-03-02T07:12:49;16.10;99.90
25906;DHT22;13713;52.552;13.204;2024-03-02T07:15:15;16.10;99.90
25906;DHT22;13713;52.552;13.204;2024-03-02T07:18:04;16.10;99.90
25906;DHT22;13713;52.552;13.204;2024-03-02T07:20:30;16.10;99.90
25906;DHT22;13713;52.552;13.204;2024-03-02T07:22:56;16.10;99.90
25906;DHT22;13713;52.552;13.204;2024-03-02T07:25:21;16.00;99.90
25906;DHT22;13713;52.552;13.204;2024-03-02T07:27:47;16.10;99.90
25906;DHT22;13713;52.552;13.204;2024-03-02T07:30:16;16.10;99.90
25906;DHT22;13713;52.552;13.204;2024-03-02T07:32:42;16.00;99.90
25906;DHT22;13713;52.552;13.204;2024-03-02T07:35:14;16.00;99.90
25906;DHT22;13713;52.552;13.204;2024-03-02T07:37:41;16.00;99.90
25906;DHT22;13713;52.552;13.204;2024-03-02T07:40:08;16.00;99.90
25906;DHT22;13713;52.552;13.204;2024-03-02T07:42:42;16.00;99.90
25906;DHT22;13713;52.552;13.204;2024-03-02T07:45:08;16.00;99.90
25906;DHT22;13713;52.552;13.204;2024-03-02T07:47:35;16.00;99.90
25906;DHT22;13713;52.552;13.204;2024-03-02T07:50:01;16.00;99.90
25906;DHT22;13713;52.552;13.204;2024-03-02T07:52:27;16.00;99.90
25906;DHT22;13713;52.552;13.204;2024-03-02T07:54:52;16.00;99.90
25906;DHT22;13713;52.552;13.204;2024-03-02T07:57:19;16.00;99.90
25906;DHT22;13713;52.552;13.204;2024-03-02T07:59:45;16.00;99.90
25906;DHT22;13713;52.552;13.204;2024-03-02T08:02:11;16.00;99.90
25906;DHT22;13713;52.552;13.204;2024-03-02T08:04:38;16.00;99.90
25906;DHT22;13713;52.552;13.204;2024-03-02T08:07:04;16.00;99.90
25906;DHT22;13713;52.552;13.204;2024-03-02T08:09:30;16.00;99.90
25906;DHT22;13713;52.552;13.204;2024-03-02T08:11:56;16.00;99.90
25906;DHT22;13713;52.552;13.204;2024-03-02T08:14:23;16.00;99.90
25906;DHT22;13713;52.552;13.204;2024-03-02T08:16:49;16.00;99.90
25906;DHT22;13713;52.552;13.204;2024-03-02T08:19:15;15.90;99.90
25906;DHT22;13713;52.552;13.204;2024-03-02T08:21:42;16.00;99.90
25906;DHT22;13713;52.552;13.204;2024-03-02T08:24:08;16.00;99.90
25906;DHT22;13713;52.552;13.204;2024-03-02T08:26:34;16.00;99.90
25906;DHT22;13713;52.552;13.204;2024-03-02T08:29:01;15.90;99.90
25906;DHT22;13713;52.552;13.204;2024-03-02T08:31:30;15.90;99.90
25906;DHT22;13713;52.552;13.204;2024-03-02T08:33:56;15.90;99.90
25906;DHT22;13713;52.552;13.204;2024-03-02T08:36:26;15.90;99.90
25906;DHT22;13713;52.552;13.204;2024-03-02T08:38:52;15.90;99.90
25906;DHT22;13713;52.552;13.204;2024-03-02T08:41:17;15.90;99.90
25906;DHT22;13713;52.552;13.204;2024-03-02T08:43:44;15.90;99.90
25906;DHT22;13713;52.552;13.204;2024-03-02T08:46:10;15.90;99.90
25906;DHT22;13713;52.552;13.204;2024-03-02T08:48:36;15.90;99.90
25906;DHT22;13713;52.552;13.204;2024-03-02T08:51:01;15.90;99.90
25906;DHT22;13713;52.552;13.204;2024-03-02T08:53:30;15.90;99.90
25906;DHT22;13713;52.552;13.204;2024-03-02T08:55:55;15.90;99.90
25906;DHT22;13713;52.552;13.204;2024-03-02T08:58:21;15.90;99.90
25906;DHT22;13713;52.552;13.204;2024-03-02T09:00:47;15.90;99.90
25906;DHT22;13713;52.552;13.204;2024-03-02T09:03:13;15.90;99.90
25906;DHT22;13713;52.552;13.204;2024-03-02T09:05:40;15.90;99.90
25906;DHT22;13713;52.552;13.204;2024-03-02T09:08:06;15.90;99.90
25906;DHT22;13713;52.552;13.204;2024-03-02T09:10:32;15.90;99.90
25906;DHT22;13713;52.552;13.204;2024-03-02T09:12:58;15.90;99.90
25906;DHT22;13713;52.552;13.204;2024-03-02T09:15:25;15.90;99.90
25906;DHT22;13713;52.552;13.204;2024-03-02T09:17:50;15.90;99.90
25906;DHT22;13713;52.552;13.204;2024-03-02T09:20:16;15.90;99.90
25906;DHT22;13713;52.552;13.204;2024-03-02T09:22:42;15.90;99.90
25906;DHT22;13713;52.552;13.204;2024-03-02T09:25:08;15.90;99.90
25906;DHT22;13713;52.552;13.204;2024-03-02T09:27:37;15.90;99.90
25906;DHT22;13713;52.552;13.204;2024-03-02T09:30:05;15.90;99.90
25906;DHT22;13713;52.552;13.204;2024-03-02T09:32:31;15.90;99.90
25906;DHT22;13713;52.552;13.204;2024-03-02T09:34:56;15.90;99.90
25906;DHT22;13713;52.552;13.204;2024-03-02T09:37:24;15.90;99.90
25906;DHT22;13713;52.552;13.204;2024-03-02T09:39:49;15.90;99.90
25906;DHT22;13713;52.552;13.204;2024-03-02T09:42:15;15.90;99.90
25906;DHT22;13713;52.552;13.204;2024-03-02T09:44:42;15.90;99.90
25906;DHT22;13713;52.552;13.204;2024-03-02T09:47:08;15.90;99.90
25906;DHT22;13713;52.552;13.204;2024-03-02T09:49:34;15.90;99.90
25906;DHT22;13713;52.552;13.204;2024-03-02T09:52:00;15.90;99.90
25906;DHT22;13713;52.552;13.204;2024-03-02T09:54:26;15.90;99.90
25906;DHT22;13713;52.552;13.204;2024-03-02T09:56:52;15.90;99.90
25906;DHT22;13713;52.552;13.204;2024-03-02T09:59:18;15.80;99.90
25906;DHT22;13713;52.552;13.204;2024-03-02T10:01:59;15.80;99.90
25906;DHT22;13713;52.552;13.204;2024-03-02T10:04:29;15.90;99.90
25906;DHT22;13713;52.552;13.204;2024-03-02T10:07:16;15.80;99.90
25906;DHT22;13713;52.552;13.204;2024-03-02T10:09:44;15.80;99.90
25906;DHT22;13713;52.552;13.204;2024-03-02T10:12:11;15.90;99.90
25906;DHT22;13713;52.552;13.204;2024-03-02T10:14:38;15.90;99.90
25906;DHT22;13713;52.552;13.204;2024-03-02T10:17:08;15.90;99.90
25906;DHT22;13713;52.552;13.204;2024-03-02T10:19:35;15.90;99.90
25906;DHT22;13713;52.552;13.204;2024-03-02T10:22:03;15.90;99.90
25906;DHT22;13713;52.552;13.204;2024-03-02T10:24:42;15.90;99.90
25906;DHT22;13713;52.552;13.204;2024-03-02T10:27:26;15.80;99.90
25906;DHT22;13713;52.552;13.204;2024-03-02T10:29:52;15.80;99.90
25906;DHT22;13713;52.552;13.204;2024-03-02T10:32:22;15.80;99.90
25906;DHT22;13713;52.552;13.204;2024-03-02T10:34:48;15.90;99.90
25906;DHT22;13713;52.552;13.204;2024-03-02T10:37:15;15.90;99.90
25906;DHT22;13713;52.552;13.204;2024-03-02T10:39:43;15.90;99.90
25906;DHT22;13713;52.552;13.204;2024-03-02T10:42:09;15.90;99.90
25906;DHT22;13713;52.552;13.204;2024-03-02T10:44:35;15.90;99.90
25906;DHT22;13713;52.552;13.204;2024-03-02T10:47:02;16.00;99.90
25906;DHT22;13713;52.552;13.204;2024-03-02T10:49:30;15.90;99.90
25906;DHT22;13713;52.552;13.204;2024-03-02T10:51:58;15.90;99.90
25906;DHT22;13713;52.552;13.204;2024-03-02T10:54:23;15.90;99.80
25906;DHT22;13713;52.552;13.204;2024-03-02T10:57:04;16.00;99.80
25906;DHT22;13713;52.552;13.204;2024-03-02T10:59:35;15.90;99.90
25906;DHT22;13713;52.552;13.204;2024-03-02T11:02:02;15.90;99.90
25906;DHT22;13713;52.552;13.204;2024-03-02T11:04:29;15.90;99.90
25906;DHT22;13713;52.552;13.204;2024-03-02T11:07:15;15.90;99.90
25906;DHT22;13713;52.552;13.204;2024-03-02T11:09:56;15.90;99.90
25906;DHT22;13713;52.552;13.204;2024-03-02T11:12:29;15.90;99.90
25906;DHT22;13713;52.552;13.204;2024-03-02T11:14:55;15.90;99.90
25906;DHT22;13713;52.552;13.204;2024-03-02T11:17:21;16.00;99.90
25906;DHT22;13713;52.552;13.204;2024-03-02T11:19:49;15.90;99.90
25906;DHT22;13713;52.552;13.204;2024-03-02T11:22:16;15.90;99.90
25906;DHT22;13713;52.552;13.204;2024-03-02T11:24:52;15.90;99.90
25906;DHT22;13713;52.552;13.204;2024-03-02T11:33:04;15.90;99.90
25906;DHT22;13713;52.552;13.204;2024-03-02T11:35:37;15.90;99.90
25906;DHT22;13713;52.552;13.204;2024-03-02T11:38:03;15.90;99.90
25906;DHT22;13713;52.552;13.204;2024-03-02T11:40:30;15.90;99.90
25906;DHT22;13713;52.552;13.204;2024-03-02T11:43:00;15.90;99.90
25906;DHT22;13713;52.552;13.204;2024-03-02T11:45:26;15.90;99.90
25906;DHT22;13713;52.552;13.204;2024-03-02T11:47:56;15.90;99.90
25906;DHT22;13713;52.552;13.204;2024-03-02T11:50:36;15.90;99.90
25906;DHT22;13713;52.552;13.204;2024-03-02T11:53:05;16.00;99.90
25906;DHT22;13713;52.552;13.204;2024-03-02T11:55:37;16.00;99.90
25906;DHT22;13713;52.552;13.204;2024-03-02T11:58:07;16.00;99.70
25906;DHT22;13713;52.552;13.204;2024-03-02T12:00:33;16.00;99.60
25906;DHT22;13713;52.552;13.204;2024-03-02T12:03:06;16.00;99.50
25906;DHT22;13713;52.552;13.204;2024-03-02T12:05:32;16.00;99.60
25906;DHT22;13713;52.552;13.204;2024-03-02T12:08:00;16.00;99.50
25906;DHT22;13713;52.552;13.204;2024-03-02T12:10:26;16.00;99.40
25906;DHT22;13713;52.552;13.204;2024-03-02T12:15:30;16.10;99.30
25906;DHT22;13713;52.552;13.204;2024-03-02T12:17:57;16.10;99.20
25906;DHT22;13713;52.552;13.204;2024-03-02T12:20:24;16.10;99.20
25906;DHT22;13713;52.552;13.204;2024-03-02T12:22:55;16.10;99.20
25906;DHT22;13713;52.552;13.204;2024-03-02T12:25:22;16.10;99.00
25906;DHT22;13713;52.552;13.204;2024-03-02T12:27:51;16.10;98.80
25906;DHT22;13713;52.552;13.204;2024-03-02T12:30:17;16.20;98.70
25906;DHT22;13713;52.552;13.204;2024-03-02T12:32:44;16.20;98.50
25906;DHT22;13713;52.552;13.204;2024-03-02T12:35:11;16.20;98.40
25906;DHT22;13713;52.552;13.204;2024-03-02T12:37:51;16.20;98.30
25906;DHT22;13713;52.552;13.204;2024-03-02T12:40:18;16.20;98.30
25906;DHT22;13713;52.552;13.204;2024-03-02T12:42:46;16.20;98.20
25906;DHT22;13713;52.552;13.204;2024-03-02T12:45:13;16.30;98.20
25906;DHT22;13713;52.552;13.204;2024-03-02T12:47:42;16.20;98.20
25906;DHT22;13713;52.552;13.204;2024-03-02T12:50:09;16.20;98.20
25906;DHT22;13713;52.552;13.204;2024-03-02T12:52:35;16.30;98.20
25906;DHT22;13713;52.552;13.204;2024-03-02T12:55:05;16.30;98.10
25906;DHT22;13713;52.552;13.204;2024-03-02T12:57:33;16.30;98.00
25906;DHT22;13713;52.552;13.204;2024-03-02T13:00:04;16.30;98.00
25906;DHT22;13713;52.552;13.204;2024-03-02T13:02:41;16.30;98.00
25906;DHT22;13713;52.552;13.204;2024-03-02T13:05:08;16.30;97.90
25906;DHT22;13713;52.552;13.204;2024-03-02T13:07:37;16.30;98.00
25906;DHT22;13713;52.552;13.204;2024-03-02T13:10:04;16.30;98.00
25906;DHT22;13713;52.552;13.204;2024-03-02T13:12:30;16.30;98.00
25906;DHT22;13713;52.552;13.204;2024-03-02T13:14:58;16.30;98.10
25906;DHT22;13713;52.552;13.204;2024-03-02T13:17:24;16.30;98.10
25906;DHT22;13713;52.552;13.204;2024-03-02T13:19:57;16.30;98.10
25906;DHT22;13713;52.552;13.204;2024-03-02T13:22:24;16.30;98.20
25906;DHT22;13713;52.552;13.204;2024-03-02T13:24:51;16.30;98.10
25906;DHT22;13713;52.552;13.204;2024-03-02T13:27:17;16.20;98.10
25906;DHT22;13713;52.552;13.204;2024-03-02T13:29:46;16.30;98.10
25906;DHT22;13713;52.552;13.204;2024-03-02T13:32:18;16.30;98.00
25906;DHT22;13713;52.552;13.204;2024-03-02T13:34:49;16.30;98.00
25906;DHT22;13713;52.552;13.204;2024-03-02T13:37:15;16.30;98.10
25906;DHT22;13713;52.552;13.204;2024-03-02T13:39:41;16.30;97.90
25906;DHT22;13713;52.552;13.204;2024-03-02T13:42:11;16.30;97.90
25906;DHT22;13713;52.552;13.204;2024-03-02T13:44:39;16.30;98.00
25906;DHT22;13713;52.552;13.204;2024-03-02T13:47:05;16.30;98.10
25906;DHT22;13713;52.552;13.204;2024-03-02T13:49:31;16.30;98.10
25906;DHT22;13713;52.552;13.204;2024-03-02T13:52:06;16.30;98.10
25906;DHT22;13713;52.552;13.204;2024-03-02T13:54:39;16.30;98.00
25906;DHT22;13713;52.552;13.204;2024-03-02T13:57:06;16.30;97.90
25906;DHT22;13713;52.552;13.204;2024-03-02T13:59:33;16.20;98.00
25906;DHT22;13713;52.552;13.204;2024-03-02T14:02:04;16.30;98.00
25906;DHT22;13713;52.552;13.204;2024-03-02T14:04:36;16.20;98.10
25906;DHT22;13713;52.552;13.204;2024-03-02T14:07:03;16.20;98.20
25906;DHT22;13713;52.552;13.204;2024-03-02T14:09:29;16.20;98.20
25906;DHT22;13713;52.552;13.204;2024-03-02T14:11:55;16.20;98.30
25906;DHT22;13713;52.552;13.204;2024-03-02T14:14:21;16.20;98.30
25906;DHT22;13713;52.552;13.204;2024-03-02T14:16:47;16.20;98.30
25906;DHT22;13713;52.552;13.204;2024-03-02T14:19:13;16.20;98.30
25906;DHT22;13713;52.552;13.204;2024-03-02T14:21:39;16.10;98.40
25906;DHT22;13713;52.552;13.204;2024-03-02T14:24:05;16.20;98.50
25906;DHT22;13713;52.552;13.204;2024-03-02T14:26:35;16.20;98.40
25906;DHT22;13713;52.552;13.204;2024-03-02T14:29:02;16.20;98.50
25906;DHT22;13713;52.552;13.204;2024-03-02T14:31:29;16.20;98.50
25906;DHT22;13713;52.552;13.204;2024-03-02T14:33:55;16.10;98.50
25906;DHT22;13713;52.552;13.204;2024-03-02T14:36:21;16.20;98.50
25906;DHT22;13713;52.552;13.204;2024-03-02T14:38:46;16.10;98.40
25906;DHT22;13713;52.552;13.204;2024-03-02T14:41:13;16.10;98.50
25906;DHT22;13713;52.552;13.204;2024-03-02T14:43:39;16.10;98.90
25906;DHT22;13713;52.552;13.204;2024-03-02T14:46:06;16.10;98.60
25906;DHT22;13713;52.552;13.204;2024-03-02T14:48:34;16.10;98.70
25906;DHT22;13713;52.552;13.204;2024-03-02T14:51:05;16.10;98.70
25906;DHT22;13713;52.552;13.204;2024-03-02T14:53:31;16.10;98.80
25906;DHT22;13713;52.552;13.204;2024-03-02T14:55:57;16.10;98.70
25906;DHT22;13713;52.552;13.204;2024-03-02T14:58:23;16.10;98.70
25906;DHT22;13713;52.552;13.204;2024-03-02T15:00:49;16.10;98.60
25906;DHT22;13713;52.552;13.204;2024-03-02T15:03:15;16.10;98.70
25906;DHT22;13713;52.552;13.204;2024-03-02T15:05:40;16.10;98.70
25906;DHT22;13713;52.552;13.204;2024-03-02T15:08:06;16.10;98.70
25906;DHT22;13713;52.552;13.204;2024-03-02T15:10:33;16.10;98.70
25906;DHT22;13713;52.552;13.204;2024-03-02T15:12:58;16.10;98.70
25906;DHT22;13713;52.552;13.204;2024-03-02T15:15:25;16.10;98.70
25906;DHT22;13713;52.552;13.204;2024-03-02T15:17:51;16.10;98.70
25906;DHT22;13713;52.552;13.204;2024-03-02T15:20:18;16.10;98.70
25906;DHT22;13713;52.552;13.204;2024-03-02T15:22:46;16.10;98.60